Aérodrome :
LOGIN :

S'inscrire | Disclaimer

   EN    FR    IT 

 










Légende :    VFR   VFR Marginal   IFR   IFR Intensif   IFR Très Intensif
Visi : 
Plafond : 
>= 8 km
>= 3000ft
5 à 8 km
1000 à 3000 ft
1500m à 5 km
500 à 1000 ft
800 à 1500m
200 à 500 ft
< 800m
< 200 ft
Symboles :   Orages  Brouillard  Fortes neiges  Fortes précipitations  Vent > 20 kt
SIGMETs :   Divers  Orages  Givrage  Turbulence  Onde Orograph.  Cendres Volcan.







- Altitude de l'aérodrome : 1504 ft
- Code IATA : PNA


LEPP - Noain Pamplona

DERNIER METAR :
  • 240930Z 32006KT 290V350 9999 SCT020 SCT024 BKN029 13/10 Q1019

METARs EXPIRÉS :
  • 240900Z 30006KT 9999 SCT022 SCT032 BKN038 12/10 Q1019
  • 240830Z 30007KT 280V340 9999 FEW022 SCT028 OVC034 12/10 Q1019
  • 240800Z 30007KT 260V330 9999 SCT024 BKN034 OVC042 12/10 Q1019
  • 240730Z 32010KT 4800 BR SCT013 OVC019 11/10 Q1019
  • 240700Z 31009KT 9999 SCT018 BKN026 OVC056 11/10 Q1019

TAF TAF LEPP
Valide du 24 à 09h jusqu'au 25 à 09h UTC


240800Z 2409/2509 33015KT 9999 BKN030 TX15/2414Z TN10/2506Z
TEMPO 2409/2509 33015G30KT
PROB40
TEMPO 2409/2509 3000 -RADZ BKN010 BKN014
Pas de NOTAMs connus pour ce terrain.
2 SIGMETs publiés pour la FIR Madrid (LECM) :
 
Orages noyés dans la masse
LECM SIGMET 6 VALID 240930/241130 LEVA
LECM MADRID FIR/UIR EMBD TS OBS AT 0930Z WI N4113 W00037 - N3938 W00105 - N3948 W00208 - N4129 W00131 - N4113 W00037 TOP FL320 MOV E NC=
Turbulence forte
LECM SIGMET 4 VALID 240800/241200 LEVA
LECM MADRID UIR SEV TURB FCST WI N4347 W00234 - N4155 W00334 - N4119 W00148 - N4253 W00047 - N4347 W00234 FL250/340 MOV E WKN=



MET'MAP, la Météo Aéronautique d'un coup d'oeil ! - Copyright ORBIFLY Décembre 2007 - Disclaimer

ORBIFLY MET'MAP TEAM :

Programmation & Développement : Alexandra Zaïnal
Conception & Développement : Baudouin d'Aumeries
Co-Programmation & Développement : Marc-Olivier Méhu
Soutien technique & logistique : Manuel Goepfert

Contact : metmap@orbifly.com




SOURCES & CREDITS :

   NOAA